Time;durP1;ratioP1;P1;durP2;ratioP2;P2;SDS_P1;SDS_P2;PMS_P1;PMS_P2;Temp;Humidity;BMP_temperature;BMP_pressure;BME280_temperature;BME280_humidity;BME280_pressure;Samples;Min_cycle;Max_cycle;Signal;HPM_P1;HPM_P2
2021/12/02 00:01:07;;;;;;;8.93;4.35;;;;;;;6.79;70.59;96311.56;5069495;28;20024;-72
2021/12/02 00:03:34;;;;;;;8.48;3.97;;;;;;;6.80;70.50;96305.78;5087166;28;20051;-73
2021/12/02 00:05:59;;;;;;;6.55;3.78;;;;;;;6.81;70.65;96334.63;5087502;28;20051;-73
2021/12/02 00:08:25;;;;;;;8.52;3.97;;;;;;;6.80;71.19;96319.41;5069323;28;20103;-74
2021/12/02 00:10:50;;;;;;;7.20;3.53;;;;;;;6.81;70.43;96329.19;5087190;28;20035;-73
2021/12/02 00:13:20;;;;;;;11.32;4.70;;;;;;;6.81;71.12;96328.41;5069119;28;20028;-74
2021/12/02 00:16:15;;;;;;;18.20;7.10;;;;;;;6.82;70.80;96322.63;5087722;28;20090;-73
2021/12/02 00:21:17;;;;;;;8.45;4.93;;;;;;;6.85;70.64;96326.63;5090965;28;20028;-73
2021/12/02 00:23:58;;;;;;;7.97;5.32;;;;;;;6.84;70.76;96336.72;5091509;28;20066;-73
2021/12/02 00:26:23;;;;;;;10.13;5.40;;;;;;;6.89;70.17;96321.31;5090094;28;20036;-73
2021/12/02 00:28:52;;;;;;;12.32;6.55;;;;;;;6.89;70.46;96322.13;5091015;28;20039;-74
2021/12/02 00:31:19;;;;;;;13.75;6.40;;;;;;;6.89;70.21;96318.59;5090798;28;20436;-74
2021/12/02 00:33:47;;;;;;;14.75;6.85;;;;;;;6.91;70.11;96327.25;5090613;28;20067;-74
2021/12/02 00:36:14;;;;;;;10.50;4.38;;;;;;;6.91;70.23;96322.63;5089738;28;20031;-73
2021/12/02 00:38:42;;;;;;;15.73;7.65;;;;;;;6.91;70.54;96316.34;5072426;28;20472;-72
2021/12/02 00:41:12;;;;;;;13.82;7.18;;;;;;;6.92;70.07;96326.13;5090600;28;20028;-73
2021/12/02 00:43:39;;;;;;;6.80;3.60;;;;;;;6.92;70.05;96324.22;5091366;28;20028;-73
2021/12/02 00:46:08;;;;;;;16.45;6.88;;;;;;;6.91;69.93;96329.97;5090022;28;20063;-73
2021/12/02 00:48:35;;;;;;;16.67;7.47;;;;;;;6.89;70.28;96330.31;5090579;28;20035;-73
2021/12/02 00:51:02;;;;;;;13.52;5.78;;;;;;;6.88;70.01;96339.59;5090607;28;20179;-73
2021/12/02 00:53:31;;;;;;;12.10;6.15;;;;;;;6.85;69.89;96334.81;5090193;28;20113;-73
2021/12/02 00:55:56;;;;;;;22.13;10.48;;;;;;;6.83;70.38;96343.28;5054565;28;20652;-73
2021/12/02 00:58:23;;;;;;;12.27;6.50;;;;;;;6.85;69.89;96340.25;5090586;28;20027;-73
2021/12/02 01:00:52;;;;;;;15.45;6.55;;;;;;;6.80;70.74;96333.03;5090594;28;20020;-73
2021/12/02 01:03:19;;;;;;;9.50;4.13;;;;;;;6.78;70.20;96338.00;5089998;28;20032;-74
2021/12/02 01:05:44;;;;;;;6.80;3.42;;;;;;;6.78;70.09;96331.78;5090509;28;20038;-74
2021/12/02 01:08:11;;;;;;;4.53;2.70;;;;;;;6.76;70.36;96337.53;5072243;28;20024;-74
2021/12/02 01:10:36;;;;;;;5.13;2.83;;;;;;;6.74;70.58;96339.00;5071939;28;20353;-74
2021/12/02 01:13:02;;;;;;;5.72;3.17;;;;;;;6.72;70.32;96325.72;5055839;28;20030;-73
2021/12/02 01:15:27;;;;;;;9.15;4.13;;;;;;;6.71;70.48;96326.81;5090662;28;20027;-74
2021/12/02 01:17:53;;;;;;;4.78;3.33;;;;;;;6.70;70.51;96323.28;5091143;28;20030;-74
2021/12/02 01:20:20;;;;;;;4.00;2.88;;;;;;;6.69;70.35;96329.84;5090961;28;20116;-74
2021/12/02 01:22:48;;;;;;;5.00;3.28;;;;;;;6.67;70.54;96323.16;5089138;28;20141;-74
2021/12/02 01:25:20;;;;;;;4.95;2.90;;;;;;;6.69;70.44;96321.69;5089497;28;20028;-74
2021/12/02 01:27:48;;;;;;;5.85;3.40;;;;;;;6.68;70.56;96322.03;5089412;28;20034;-73
2021/12/02 01:30:15;;;;;;;4.18;2.83;;;;;;;6.67;70.57;96323.16;5090405;28;20024;-74
2021/12/02 01:32:41;;;;;;;3.75;2.78;;;;;;;6.65;70.62;96315.28;5090073;28;20115;-74
2021/12/02 01:35:07;;;;;;;5.32;3.47;;;;;;;6.64;70.50;96329.25;5088684;28;20057;-74
2021/12/02 01:37:33;;;;;;;5.25;3.33;;;;;;;6.65;70.10;96322.66;5089193;28;20515;-73
2021/12/02 01:39:59;;;;;;;6.07;3.50;;;;;;;6.63;70.71;96316.75;5089479;28;20140;-74
2021/12/02 01:42:27;;;;;;;5.22;3.63;;;;;;;6.59;70.32;96313.06;5089430;28;20030;-74
2021/12/02 01:44:55;;;;;;;5.70;2.70;;;;;;;6.55;70.72;96315.59;5089215;28;20103;-74
2021/12/02 01:47:27;;;;;;;4.68;3.00;;;;;;;6.48;70.85;96329.72;5089236;28;20050;-73
2021/12/02 01:49:59;;;;;;;4.53;2.80;;;;;;;6.45;70.85;96302.34;5088368;28;20039;-74
2021/12/02 01:52:31;;;;;;;4.97;2.97;;;;;;;6.42;70.99;96300.28;5088898;28;20052;-74
2021/12/02 01:55:16;;;;;;;3.38;2.63;;;;;;;6.38;70.87;96317.25;5088714;28;20133;-73
2021/12/02 01:58:01;;;;;;;4.88;2.80;;;;;;;6.36;71.10;96324.13;5088815;28;20028;-73
2021/12/02 02:00:32;;;;;;;4.63;3.05;;;;;;;6.34;70.69;96324.47;5089278;28;20032;-73
2021/12/02 02:03:02;;;;;;;6.13;3.03;;;;;;;6.31;70.96;96316.13;5089437;28;20028;-75
2021/12/02 02:05:30;;;;;;;10.15;4.60;;;;;;;6.30;70.92;96323.50;5088813;28;20759;-74
2021/12/02 02:08:01;;;;;;;7.18;4.03;;;;;;;6.27;71.34;96332.28;5090774;28;20100;-73
2021/12/02 02:10:35;;;;;;;6.50;3.20;;;;;;;6.27;71.35;96323.34;5091273;28;20499;-74
2021/12/02 02:13:03;;;;;;;3.70;2.33;;;;;;;6.25;71.18;96315.47;5090798;28;20051;-74
2021/12/02 02:15:29;;;;;;;4.47;3.20;;;;;;;6.23;71.02;96309.56;5088109;28;20028;-74
2021/12/02 02:18:28;;;;;;;4.47;2.65;;;;;;;6.22;71.21;96319.66;5089058;28;20507;-74
2021/12/02 02:21:03;;;;;;;3.42;2.47;;;;;;;6.20;71.39;96311.00;5086170;28;20476;-73
2021/12/02 02:23:32;;;;;;;4.35;2.63;;;;;;;6.19;71.32;96330.38;5088696;28;20027;-73
2021/12/02 02:25:58;;;;;;;3.63;2.22;;;;;;;6.20;71.36;96327.34;5087767;28;20024;-73
2021/12/02 02:28:24;;;;;;;5.35;2.80;;;;;;;6.19;71.47;96335.81;5088695;28;20539;-73
2021/12/02 02:30:50;;;;;;;3.90;2.58;;;;;;;6.20;71.33;96338.22;5089079;28;20447;-73
2021/12/02 02:33:18;;;;;;;3.88;2.70;;;;;;;6.23;71.29;96347.66;5070126;28;20047;-73
2021/12/02 02:35:45;;;;;;;3.80;2.55;;;;;;;6.25;71.34;96350.88;5088255;28;20056;-73
2021/12/02 02:38:10;;;;;;;5.25;2.75;;;;;;;6.24;71.36;96344.63;5086489;28;20110;-74
2021/12/02 02:40:39;;;;;;;4.85;3.20;;;;;;;6.25;71.11;96339.97;5087805;28;20544;-73
2021/12/02 02:43:07;;;;;;;3.67;2.45;;;;;;;6.25;71.10;96346.25;5088581;28;20024;-74
2021/12/02 02:45:33;;;;;;;5.20;2.78;;;;;;;6.24;71.46;96346.56;5088732;28;20018;-73
2021/12/02 02:47:59;;;;;;;4.63;2.97;;;;;;;6.25;71.28;96343.53;5089726;28;20099;-74
2021/12/02 02:50:24;;;;;;;5.03;2.92;;;;;;;6.25;71.35;96338.06;5089576;28;20457;-74
2021/12/02 02:53:02;;;;;;;5.13;3.17;;;;;;;6.27;71.51;96339.69;5089800;28;20020;-74
2021/12/02 02:55:28;;;;;;;3.30;2.40;;;;;;;6.30;71.45;96347.22;5070440;28;20024;-74
2021/12/02 02:58:10;;;;;;;4.05;2.78;;;;;;;6.30;70.93;96350.72;5090009;28;20081;-73
2021/12/02 03:00:45;;;;;;;3.03;2.13;;;;;;;6.28;71.14;96336.63;5089632;28;20514;-73
2021/12/02 03:03:29;;;;;;;4.65;2.40;;;;;;;6.27;71.03;96342.41;5089785;28;20090;-74
2021/12/02 03:08:49;;;;;;;4.35;2.85;;;;;;;6.21;70.75;96339.84;5087451;28;20047;-73
2021/12/02 03:11:16;;;;;;;4.93;3.03;;;;;;;6.18;71.31;96351.34;5087788;28;20028;-74
2021/12/02 03:13:50;;;;;;;4.70;2.63;;;;;;;6.19;71.61;96363.03;5089567;28;20024;-73
2021/12/02 03:19:01;;;;;;;4.05;2.55;;;;;;;6.21;70.97;96344.47;5088258;28;20162;-74
2021/12/02 03:21:28;;;;;;;3.95;2.80;;;;;;;6.21;70.82;96345.28;5089253;28;20543;-74
2021/12/02 03:23:56;;;;;;;3.50;2.60;;;;;;;6.18;70.95;96339.66;5089302;28;20038;-73
2021/12/02 03:26:22;;;;;;;4.22;2.25;;;;;;;6.18;71.17;96343.19;5089261;28;20031;-74
2021/12/02 03:28:49;;;;;;;3.92;2.17;;;;;;;6.16;70.86;96341.91;5071080;28;20028;-73
2021/12/02 03:31:15;;;;;;;4.78;2.63;;;;;;;6.14;71.07;96344.94;5089083;28;20024;-73
2021/12/02 03:33:42;;;;;;;4.43;2.58;;;;;;;6.13;70.70;96359.69;5088957;28;20044;-74
2021/12/02 03:36:09;;;;;;;3.10;2.22;;;;;;;6.14;70.54;96355.03;5088712;28;20024;-74
2021/12/02 03:38:34;;;;;;;4.20;2.50;;;;;;;6.14;70.83;96360.47;5089144;28;20493;-74
2021/12/02 03:41:00;;;;;;;3.75;2.47;;;;;;;6.12;71.04;96355.34;5089050;28;20048;-75
2021/12/02 03:43:27;;;;;;;4.32;2.60;;;;;;;6.12;71.16;96368.97;5084361;28;20531;-74
2021/12/02 03:45:54;;;;;;;4.10;2.55;;;;;;;6.11;71.18;96370.88;5087479;28;20028;-74
2021/12/02 03:48:19;;;;;;;4.45;2.70;;;;;;;6.14;70.90;96376.78;5088457;28;20028;-74
2021/12/02 03:50:45;;;;;;;3.33;2.60;;;;;;;6.16;70.92;96380.00;5089563;28;20022;-74
2021/12/02 03:53:10;;;;;;;3.35;2.38;;;;;;;6.16;71.16;96372.66;5092620;28;20024;-74
2021/12/02 03:55:36;;;;;;;4.65;2.60;;;;;;;6.18;70.89;96392.19;5092652;28;20188;-74
2021/12/02 03:58:01;;;;;;;3.55;3.03;;;;;;;6.22;71.49;96389.63;5092551;28;20126;-74
2021/12/02 04:00:27;;;;;;;3.05;2.40;;;;;;;6.25;70.77;96397.97;5092360;28;20023;-74
2021/12/02 04:02:52;;;;;;;4.18;2.72;;;;;;;6.27;70.82;96391.41;5092721;28;20028;-74
2021/12/02 04:05:18;;;;;;;4.70;2.40;;;;;;;6.28;70.96;96390.28;5092245;28;20038;-74
2021/12/02 04:07:43;;;;;;;4.90;3.80;;;;;;;6.29;70.96;96389.16;5092376;28;20553;-74
2021/12/02 04:10:09;;;;;;;6.28;4.32;;;;;;;6.31;71.14;96397.81;5092694;28;20023;-74
2021/12/02 04:15:04;;;;;;;14.02;5.40;;;;;;;6.32;71.03;96393.94;5092360;28;20393;-74
2021/12/02 04:17:43;;;;;;;35.20;11.23;;;;;;;6.30;70.92;96394.28;5092155;28;20012;-74
2021/12/02 04:20:13;;;;;;;11.40;4.63;;;;;;;6.30;70.99;96397.00;5073999;28;20388;-73
2021/12/02 04:22:39;;;;;;;9.75;5.28;;;;;;;6.32;70.88;96399.38;5092473;28;20020;-73
2021/12/02 04:25:06;;;;;;;10.40;6.13;;;;;;;6.33;70.91;96390.09;5092516;28;20028;-73
2021/12/02 04:27:31;;;;;;;7.85;5.40;;;;;;;6.31;71.06;96405.97;5091832;28;20020;-73
2021/12/02 04:29:56;;;;;;;8.00;5.53;;;;;;;6.29;70.38;96414.44;5073781;28;20857;-73
2021/12/02 04:32:22;;;;;;;9.88;5.65;;;;;;;6.27;70.91;96418.63;5091932;28;20036;-73
2021/12/02 04:34:47;;;;;;;10.45;5.80;;;;;;;6.24;71.00;96425.50;5092151;28;20024;-74
2021/12/02 04:37:13;;;;;;;8.80;5.85;;;;;;;6.23;71.21;96426.59;5073060;28;20024;-73
2021/12/02 04:39:38;;;;;;;9.77;6.72;;;;;;;6.21;70.97;96432.38;5073832;28;20020;-73
2021/12/02 04:42:04;;;;;;;4.78;3.30;;;;;;;6.18;71.28;96433.00;5092261;28;20016;-74
2021/12/02 04:44:29;;;;;;;5.78;3.63;;;;;;;6.20;71.31;96438.13;5091944;28;20050;-74
2021/12/02 04:46:54;;;;;;;8.00;4.90;;;;;;;6.18;71.08;96437.66;5091108;28;20020;-73
2021/12/02 04:49:20;;;;;;;6.75;4.47;;;;;;;6.16;71.04;96437.97;5073342;28;20027;-73
2021/12/02 04:51:45;;;;;;;9.20;5.38;;;;;;;6.16;70.95;96448.03;5092018;28;20027;-73
2021/12/02 04:54:11;;;;;;;6.88;4.65;;;;;;;6.14;70.91;96448.38;5091964;28;20020;-73
2021/12/02 04:56:37;;;;;;;5.35;3.38;;;;;;;6.15;70.49;96438.28;5091366;28;20020;-73
2021/12/02 04:59:03;;;;;;;6.00;4.20;;;;;;;6.13;70.97;96440.50;5091656;28;20039;-73
2021/12/02 05:01:28;;;;;;;6.25;4.47;;;;;;;6.13;70.96;96438.59;5091381;28;20081;-73
2021/12/02 05:03:54;;;;;;;5.43;3.40;;;;;;;6.14;70.68;96439.41;5090681;28;20378;-73
2021/12/02 05:06:19;;;;;;;5.43;3.55;;;;;;;6.11;70.80;96440.84;5089670;28;20008;-73
2021/12/02 05:08:44;;;;;;;6.68;4.38;;;;;;;6.06;70.91;96430.91;5091280;28;20527;-73
2021/12/02 05:11:10;;;;;;;6.18;4.18;;;;;;;6.05;70.79;96433.94;5072963;28;20016;-73
2021/12/02 05:13:35;;;;;;;5.38;2.97;;;;;;;6.01;70.49;96432.97;5091446;28;20024;-73
2021/12/02 05:16:01;;;;;;;6.75;3.72;;;;;;;6.00;70.55;96437.63;5090803;28;20020;-73
2021/12/02 05:18:26;;;;;;;5.65;3.47;;;;;;;5.99;70.32;96437.88;5091047;28;20152;-73
2021/12/02 05:20:52;;;;;;;5.80;3.20;;;;;;;5.93;70.45;96427.16;5091269;28;20460;-73
2021/12/02 05:23:17;;;;;;;5.07;3.20;;;;;;;5.88;70.51;96430.03;5091302;28;20460;-73
2021/12/02 05:25:46;;;;;;;5.03;3.40;;;;;;;5.83;70.23;96432.91;5072777;28;20020;-74
2021/12/02 05:28:13;;;;;;;5.78;3.00;;;;;;;5.80;70.18;96422.66;5090836;28;20099;-73
2021/12/02 05:30:38;;;;;;;5.05;2.75;;;;;;;5.75;69.99;96422.78;5090432;28;20016;-74
2021/12/02 05:33:04;;;;;;;8.45;4.10;;;;;;;5.70;69.99;96426.47;5090600;28;20056;-74
2021/12/02 05:35:29;;;;;;;5.28;3.40;;;;;;;5.67;70.17;96424.38;5090977;28;20024;-73
2021/12/02 05:37:54;;;;;;;5.00;3.65;;;;;;;5.66;70.53;96426.28;5090969;28;20024;-73
2021/12/02 05:40:20;;;;;;;7.53;3.40;;;;;;;5.65;70.32;96427.38;5090899;28;20487;-74
2021/12/02 05:42:45;;;;;;;7.93;4.32;;;;;;;5.65;69.92;96421.16;5091011;28;20103;-74
2021/12/02 05:45:11;;;;;;;15.70;7.00;;;;;;;5.60;70.09;96424.81;5090420;28;20112;-74
2021/12/02 05:47:36;;;;;;;31.48;11.90;;;;;;;5.59;70.80;96425.91;5090717;28;20039;-74
2021/12/02 05:50:05;;;;;;;20.02;8.25;;;;;;;5.58;70.63;96428.97;5090945;28;20023;-74
2021/12/02 05:52:30;;;;;;;25.83;12.23;;;;;;;5.57;70.58;96430.88;5091811;28;20020;-75
2021/12/02 05:54:57;;;;;;;35.60;14.85;;;;;;;5.58;70.92;96431.69;5091099;28;20024;-75
2021/12/02 05:57:23;;;;;;;18.63;8.57;;;;;;;5.56;70.61;96429.25;5090805;28;20046;-75
2021/12/02 05:59:48;;;;;;;24.02;10.48;;;;;;;5.55;71.28;96432.31;5090864;28;20055;-75
2021/12/02 06:02:14;;;;;;;21.27;9.68;;;;;;;5.56;71.25;96434.69;5091964;28;20027;-75
2021/12/02 06:04:40;;;;;;;13.48;6.70;;;;;;;5.56;71.04;96444.78;5092811;28;20019;-74
2021/12/02 06:07:05;;;;;;;15.75;5.97;;;;;;;5.57;71.18;96446.41;5077445;28;20055;-75
2021/12/02 06:09:31;;;;;;;22.83;7.90;;;;;;;5.56;71.05;96440.13;5091799;28;20107;-76
2021/12/02 06:11:57;;;;;;;33.05;11.70;;;;;;;5.55;71.07;96445.91;5093125;28;20042;-76
2021/12/02 06:14:22;;;;;;;30.58;11.98;;;;;;;5.55;71.13;96456.78;5092215;28;20465;-75
2021/12/02 06:16:47;;;;;;;33.42;12.88;;;;;;;5.53;71.30;96461.72;5094343;28;20071;-75
2021/12/02 06:19:13;;;;;;;11.65;5.07;;;;;;;5.51;71.46;96456.59;5073005;28;20036;-74
2021/12/02 06:21:39;;;;;;;7.38;3.83;;;;;;;5.51;70.92;96460.13;5093945;28;20085;-76
2021/12/02 06:24:05;;;;;;;8.85;3.58;;;;;;;5.56;70.55;96464.63;5092821;28;20427;-75
2021/12/02 06:26:32;;;;;;;8.80;4.00;;;;;;;5.59;71.15;96468.63;5091597;28;20484;-75
2021/12/02 06:28:58;;;;;;;7.65;3.95;;;;;;;5.61;70.87;96453.59;5091696;28;20389;-75
2021/12/02 06:31:24;;;;;;;8.40;3.83;;;;;;;5.64;70.68;96455.69;5091040;28;20028;-76
2021/12/02 06:33:50;;;;;;;11.25;5.35;;;;;;;5.68;70.66;96463.22;5091019;28;20048;-75
2021/12/02 06:36:15;;;;;;;12.30;4.63;;;;;;;5.70;70.53;96474.59;5073941;28;20395;-75
2021/12/02 06:38:42;;;;;;;7.57;3.40;;;;;;;5.72;70.33;96475.88;5091009;28;20077;-75
2021/12/02 06:41:07;;;;;;;7.88;3.83;;;;;;;5.73;70.52;96471.25;5076464;28;20039;-75
2021/12/02 06:43:33;;;;;;;11.98;5.07;;;;;;;5.74;70.20;96479.09;5074381;28;20032;-75
2021/12/02 06:45:58;;;;;;;28.02;12.85;;;;;;;5.75;70.29;96491.56;5091897;28;20031;-74
2021/12/02 06:48:24;;;;;;;43.05;17.88;;;;;;;5.78;70.26;96492.88;5093416;28;20036;-76
2021/12/02 06:50:49;;;;;;;14.50;5.28;;;;;;;5.80;70.18;96491.44;5090781;28;20039;-76
2021/12/02 06:53:17;;;;;;;16.08;5.85;;;;;;;5.80;69.87;96498.81;5091771;28;20016;-75
2021/12/02 06:55:43;;;;;;;13.30;5.20;;;;;;;5.84;69.69;96497.06;5090364;28;20483;-75
2021/12/02 06:58:08;;;;;;;33.83;10.35;;;;;;;5.86;70.25;96499.47;5092770;28;20438;-76
2021/12/02 07:00:34;;;;;;;29.40;11.20;;;;;;;5.86;69.95;96499.47;5076364;28;20076;-75
2021/12/02 07:03:01;;;;;;;28.23;10.48;;;;;;;5.89;70.22;96509.72;5091081;28;20496;-76
2021/12/02 07:05:30;;;;;;;36.83;12.68;;;;;;;5.90;70.06;96501.28;5090137;28;20103;-75
2021/12/02 07:07:55;;;;;;;55.17;20.20;;;;;;;5.93;70.21;96506.06;5090714;28;20028;-76
2021/12/02 07:10:25;;;;;;;37.05;13.85;;;;;;;5.95;70.00;96503.81;5093601;28;20176;-75
2021/12/02 07:12:55;;;;;;;29.10;10.70;;;;;;;6.00;69.54;96499.34;5073811;28;20024;-75
2021/12/02 07:15:27;;;;;;;41.38;17.42;;;;;;;6.03;69.40;96507.75;5073848;28;20035;-75
2021/12/02 07:17:56;;;;;;;34.50;13.98;;;;;;;6.03;69.54;96510.47;5090693;28;20024;-75
2021/12/02 07:20:30;;;;;;;37.33;16.98;;;;;;;6.07;69.51;96513.34;5073168;28;20376;-75
2021/12/02 07:22:57;;;;;;;33.70;13.88;;;;;;;6.09;69.78;96511.13;5091990;28;20101;-75
2021/12/02 07:25:22;;;;;;;29.80;12.55;;;;;;;6.13;69.46;96522.97;5092448;28;20488;-75
2021/12/02 07:27:48;;;;;;;46.10;18.02;;;;;;;6.15;69.74;96531.63;5094740;28;20101;-75
2021/12/02 07:30:14;;;;;;;33.95;13.50;;;;;;;6.21;69.65;96538.53;5094596;28;20399;-75
2021/12/02 07:32:40;;;;;;;25.90;9.77;;;;;;;6.22;68.73;96536.59;5094400;28;20143;-75
2021/12/02 07:35:11;;;;;;;9.98;4.70;;;;;;;6.23;69.19;96530.88;5094955;28;20207;-74
2021/12/02 07:37:41;;;;;;;28.23;12.23;;;;;;;6.27;69.37;96536.47;5094452;28;20440;-75
2021/12/02 07:40:07;;;;;;;48.67;21.58;;;;;;;6.25;69.31;96536.81;5094402;28;20488;-74
2021/12/02 07:42:32;;;;;;;29.10;15.13;;;;;;;6.28;69.33;96540.00;5094585;28;20031;-74
2021/12/02 07:44:58;;;;;;;37.10;18.13;;;;;;;6.27;69.21;96550.09;5093762;28;20020;-74
2021/12/02 07:47:25;;;;;;;27.58;13.73;;;;;;;6.25;69.67;96542.25;5075629;28;20559;-74
2021/12/02 07:49:51;;;;;;;17.08;9.10;;;;;;;6.27;69.04;96552.81;5094139;28;20115;-75
2021/12/02 07:52:21;;;;;;;23.73;11.40;;;;;;;6.29;69.77;96555.22;5094102;28;20024;-75
2021/12/02 07:54:50;;;;;;;17.48;9.25;;;;;;;6.30;69.38;96548.66;5095342;28;20073;-74
2021/12/02 07:57:16;;;;;;;14.70;6.95;;;;;;;6.29;69.69;96558.75;5093958;28;20036;-74
2021/12/02 07:59:42;;;;;;;13.20;8.40;;;;;;;6.29;69.58;96557.94;5094836;28;20678;-74
2021/12/02 08:02:14;;;;;;;17.88;11.30;;;;;;;6.29;69.62;96553.28;5093929;28;20110;-75
2021/12/02 08:04:39;;;;;;;15.65;8.00;;;;;;;6.31;69.44;96553.00;5074494;28;20016;-75
2021/12/02 08:07:04;;;;;;;16.15;8.80;;;;;;;6.32;69.31;96555.38;5095022;28;20607;-74
2021/12/02 08:09:30;;;;;;;11.73;5.95;;;;;;;6.32;69.45;96552.66;5094548;28;20032;-74
2021/12/02 08:11:58;;;;;;;10.93;5.88;;;;;;;6.30;69.26;96554.91;5093734;28;20032;-74
2021/12/02 08:14:24;;;;;;;13.35;6.50;;;;;;;6.31;69.48;96564.69;5097132;28;20023;-74
2021/12/02 08:16:49;;;;;;;11.27;6.30;;;;;;;6.32;69.69;96563.56;5094984;28;20053;-74
2021/12/02 08:19:15;;;;;;;11.50;5.82;;;;;;;6.31;69.47;96564.69;5095816;28;20030;-75
2021/12/02 08:21:40;;;;;;;15.45;6.80;;;;;;;6.32;69.48;96570.91;5095870;28;20040;-72
2021/12/02 08:24:06;;;;;;;11.55;4.72;;;;;;;6.34;69.79;96574.94;5071860;28;20039;-76
2021/12/02 08:26:33;;;;;;;8.23;4.65;;;;;;;6.36;69.50;96575.44;5076005;28;20412;-74
2021/12/02 08:28:59;;;;;;;10.38;5.43;;;;;;;6.37;69.34;96582.47;5075059;28;20499;-74
2021/12/02 08:31:24;;;;;;;11.70;5.03;;;;;;;6.38;69.28;96577.81;5093372;28;20036;-75
2021/12/02 08:33:52;;;;;;;10.80;5.30;;;;;;;6.43;68.96;96590.50;5092572;28;20052;-73
2021/12/02 08:36:21;;;;;;;8.88;4.72;;;;;;;6.44;69.22;96590.19;5092282;28;20040;-73
2021/12/02 08:38:47;;;;;;;13.50;5.53;;;;;;;6.47;68.76;96594.22;5093533;28;20085;-73
2021/12/02 08:41:16;;;;;;;10.43;5.05;;;;;;;6.46;69.06;96593.38;5092159;28;20027;-73
2021/12/02 08:43:42;;;;;;;11.15;5.25;;;;;;;6.50;67.81;96599.03;5095537;28;20024;-76
2021/12/02 08:46:07;;;;;;;10.82;4.90;;;;;;;6.48;68.72;96609.44;5091914;28;20032;-74
2021/12/02 08:48:32;;;;;;;11.40;5.10;;;;;;;6.50;68.27;96604.47;5093468;28;20618;-73
2021/12/02 08:50:58;;;;;;;12.48;5.60;;;;;;;6.49;68.68;96609.09;5092909;28;20541;-74
2021/12/02 08:53:23;;;;;;;15.13;7.43;;;;;;;6.52;68.67;96596.78;5092263;28;20077;-75
2021/12/02 08:55:49;;;;;;;12.48;4.50;;;;;;;6.53;67.70;96606.53;5075279;28;20050;-75
2021/12/02 08:58:14;;;;;;;10.65;3.92;;;;;;;6.53;67.46;96618.25;5092015;28;20024;-74
2021/12/02 09:00:41;;;;;;;11.60;4.50;;;;;;;6.52;67.22;96616.66;5092619;28;20446;-74
2021/12/02 09:03:09;;;;;;;7.38;3.60;;;;;;;6.52;67.01;96624.81;5074373;28;20067;-74
2021/12/02 09:05:35;;;;;;;11.02;4.45;;;;;;;6.53;67.15;96636.50;5091365;28;20035;-75
2021/12/02 09:08:01;;;;;;;10.82;4.50;;;;;;;6.52;66.97;96641.16;5092788;28;20035;-76
2021/12/02 09:10:27;;;;;;;9.95;4.43;;;;;;;6.53;66.85;96650.13;5093490;28;20032;-72
2021/12/02 09:12:53;;;;;;;9.05;4.05;;;;;;;6.55;66.76;96645.16;5080638;28;20024;-73
2021/12/02 09:15:20;;;;;;;11.98;4.00;;;;;;;6.52;66.34;96652.06;5090763;28;20050;-74
2021/12/02 09:17:45;;;;;;;8.68;4.50;;;;;;;6.52;66.25;96651.25;5092559;28;20782;-74
2021/12/02 09:20:15;;;;;;;8.90;3.65;;;;;;;6.52;66.24;96643.09;5091404;28;20063;-73
2021/12/02 09:22:42;;;;;;;17.33;5.43;;;;;;;6.52;66.82;96645.81;5089795;28;20028;-72
2021/12/02 09:25:08;;;;;;;12.98;5.35;;;;;;;6.54;66.53;96646.28;5090109;28;20750;-72
2021/12/02 09:27:34;;;;;;;8.80;3.85;;;;;;;6.59;67.21;96650.81;5091374;28;20073;-73
2021/12/02 09:30:00;;;;;;;9.27;4.75;;;;;;;6.61;66.95;96654.81;5091801;28;20387;-74
2021/12/02 09:32:27;;;;;;;8.88;4.70;;;;;;;6.63;66.44;96644.41;5090433;28;20048;-72
2021/12/02 09:34:52;;;;;;;11.73;3.95;;;;;;;6.65;66.21;96635.94;5091178;28;20031;-72
2021/12/02 09:37:18;;;;;;;10.27;3.90;;;;;;;6.70;65.60;96636.56;5072918;28;20022;-74
2021/12/02 09:39:44;;;;;;;10.68;3.63;;;;;;;6.73;65.39;96642.50;5090039;28;20032;-74
2021/12/02 09:42:10;;;;;;;15.63;4.97;;;;;;;6.76;65.30;96650.06;5090736;28;20016;-74
2021/12/02 09:44:37;;;;;;;13.13;4.85;;;;;;;6.77;65.01;96636.09;5089666;28;20506;-74
2021/12/02 09:47:03;;;;;;;10.52;3.90;;;;;;;6.79;65.42;96633.88;5091087;28;20019;-74
2021/12/02 09:49:30;;;;;;;14.50;5.90;;;;;;;6.87;64.57;96643.19;5071597;28;20028;-73
2021/12/02 09:52:04;;;;;;;5.40;2.53;;;;;;;6.88;62.23;96649.44;5089740;28;20028;-73
2021/12/02 09:57:05;;;;;;;5.10;2.35;;;;;;;6.82;62.86;96651.53;5091562;28;20033;-74
2021/12/02 10:02:04;;;;;;;4.95;2.55;;;;;;;6.86;63.08;96647.06;5089661;28;20036;-72
2021/12/02 10:04:31;;;;;;;7.65;3.03;;;;;;;6.89;62.68;96643.69;5090598;28;20055;-74
2021/12/02 10:07:22;;;;;;;8.73;4.10;;;;;;;6.93;63.28;96646.56;5090063;28;20155;-73
2021/12/02 10:12:31;;;;;;;5.10;2.65;;;;;;;6.91;62.91;96640.63;5089976;28;20043;-72
2021/12/02 10:14:59;;;;;;;6.20;2.50;;;;;;;6.89;62.54;96640.97;5089311;28;20048;-70
2021/12/02 10:23:03;;;;;;;9.25;3.53;;;;;;;6.80;62.67;96638.19;5089957;28;20032;-70
2021/12/02 10:25:34;;;;;;;7.90;3.88;;;;;;;6.78;62.98;96640.44;5089704;28;20115;-71
2021/12/02 10:28:05;;;;;;;8.63;3.60;;;;;;;6.78;62.92;96640.44;5090362;28;20091;-70
2021/12/02 10:30:30;;;;;;;6.45;3.22;;;;;;;6.76;63.55;96633.72;5070774;28;20063;-70
2021/12/02 10:32:56;;;;;;;7.07;3.03;;;;;;;6.77;64.11;96635.31;5071632;28;20123;-72
2021/12/02 10:35:37;;;;;;;5.35;3.10;;;;;;;6.76;63.04;96637.22;5072469;28;20123;-71
2021/12/02 10:38:02;;;;;;;9.65;5.10;;;;;;;6.73;63.23;96631.63;5091025;28;20107;-71
2021/12/02 10:40:27;;;;;;;18.52;8.50;;;;;;;6.74;63.50;96630.50;5090128;28;20864;-73
2021/12/02 10:42:53;;;;;;;10.55;4.40;;;;;;;6.76;63.69;96626.31;5088354;28;20028;-72
2021/12/02 10:45:30;;;;;;;15.10;8.50;;;;;;;6.80;63.57;96634.69;5071681;28;20391;-72
2021/12/02 10:47:57;;;;;;;6.90;3.72;;;;;;;6.84;63.35;96624.75;5088801;28;20035;-71
2021/12/02 10:50:24;;;;;;;12.38;3.83;;;;;;;6.90;63.36;96619.94;5090220;28;20494;-71
2021/12/02 10:52:53;;;;;;;16.98;5.72;;;;;;;6.95;63.12;96620.59;5089563;28;20121;-71
2021/12/02 10:55:22;;;;;;;13.18;4.20;;;;;;;6.99;62.94;96624.28;5088717;28;20119;-72
2021/12/02 10:57:56;;;;;;;14.75;7.10;;;;;;;7.02;62.97;96625.59;5089391;28;20462;-72
2021/12/02 11:00:24;;;;;;;16.13;5.72;;;;;;;7.05;62.71;96627.69;5091095;28;20020;-71
2021/12/02 11:02:53;;;;;;;5.80;2.83;;;;;;;7.05;61.66;96626.88;5088959;28;20039;-73
2021/12/02 11:05:31;;;;;;;6.77;2.80;;;;;;;7.05;62.75;96621.41;5088854;28;20028;-75
2021/12/02 11:08:05;;;;;;;9.73;3.65;;;;;;;7.05;61.26;96632.31;5089274;28;20158;-70
2021/12/02 11:10:37;;;;;;;5.28;2.08;;;;;;;6.92;61.09;96623.16;5090409;28;20048;-73
2021/12/02 11:13:04;;;;;;;5.47;2.05;;;;;;;6.79;60.88;96625.69;5090936;28;20028;-73
2021/12/02 11:15:31;;;;;;;7.03;2.22;;;;;;;6.68;60.95;96618.94;5088938;28;20107;-72
2021/12/02 11:17:59;;;;;;;7.10;2.20;;;;;;;6.63;60.77;96624.53;5071530;28;20036;-74
2021/12/02 11:20:50;;;;;;;8.60;3.00;;;;;;;6.58;61.37;96622.75;5071088;28;20031;-72
2021/12/02 11:23:28;;;;;;;29.27;9.13;;;;;;;6.58;62.10;96627.41;5090138;28;20028;-73
2021/12/02 11:26:00;;;;;;;15.80;5.00;;;;;;;6.60;62.40;96619.72;5089260;28;20028;-74
2021/12/02 11:28:31;;;;;;;7.03;3.20;;;;;;;6.58;61.38;96625.47;5072219;28;20024;-73
2021/12/02 11:31:08;;;;;;;15.32;5.18;;;;;;;6.52;61.53;96619.38;5092003;28;20377;-76
2021/12/02 11:33:36;;;;;;;9.70;3.28;;;;;;;6.50;61.29;96621.59;5062015;28;20048;-73
2021/12/02 11:36:04;;;;;;;17.23;4.95;;;;;;;6.46;61.43;96617.91;5088183;28;20888;-75
2021/12/02 11:38:30;;;;;;;8.60;3.08;;;;;;;6.45;61.91;96621.75;5089641;28;20102;-74
2021/12/02 11:40:58;;;;;;;11.48;4.53;;;;;;;6.44;62.28;96624.78;5089744;28;20081;-76
2021/12/02 11:43:30;;;;;;;13.05;4.18;;;;;;;6.46;62.45;96630.72;5089465;28;20023;-76
2021/12/02 11:45:57;;;;;;;9.98;3.78;;;;;;;6.48;62.60;96636.66;5074113;28;20031;-71
2021/12/02 11:48:31;;;;;;;8.40;2.90;;;;;;;6.48;62.20;96636.66;5071344;28;20062;-75
2021/12/02 11:51:02;;;;;;;10.80;3.05;;;;;;;6.47;62.05;96644.03;5087797;28;20070;-73
2021/12/02 11:53:28;;;;;;;10.30;4.50;;;;;;;6.47;62.74;96633.13;5069778;28;20081;-73
2021/12/02 11:56:18;;;;;;;21.80;8.40;;;;;;;6.52;62.40;96648.53;5091342;28;20067;-72
2021/12/02 11:58:44;;;;;;;4.72;2.17;;;;;;;6.53;62.08;96641.94;5087402;28;20038;-76
2021/12/02 12:01:18;;;;;;;6.05;3.30;;;;;;;6.53;62.16;96644.66;5090192;28;20020;-73
2021/12/02 12:03:48;;;;;;;7.38;3.95;;;;;;;6.55;62.34;96642.44;5090393;28;20028;-75